createdAt,value
2019-03-12T00:00:01.758Z,-2.20
2019-03-12T00:02:32.170Z,-1.90
2019-03-12T00:05:02.633Z,-1.80
2019-03-12T00:07:33.050Z,-1.60
2019-03-12T00:10:03.607Z,-1.50
2019-03-12T00:12:34.002Z,-1.40
2019-03-12T00:15:04.600Z,-1.60
2019-03-12T00:17:35.007Z,-1.60
2019-03-12T00:20:05.767Z,-1.70
2019-03-12T00:22:36.218Z,-1.40
2019-03-12T00:25:06.894Z,-1.20
2019-03-12T00:27:37.322Z,-1.20
2019-03-12T00:30:08.050Z,-1.10
2019-03-12T00:32:38.514Z,-0.70
2019-03-12T00:35:09.131Z,-0.70
2019-03-12T00:37:39.553Z,-0.50
2019-03-12T00:40:10.235Z,-0.30
2019-03-12T00:42:40.718Z,-0.30
2019-03-12T00:45:11.373Z,-0.30
2019-03-12T00:47:41.932Z,0.00
2019-03-12T00:50:12.578Z,-0.30
2019-03-12T00:52:43.033Z,0.00
2019-03-12T00:55:13.926Z,0.10
2019-03-12T00:57:44.339Z,0.10
2019-03-12T01:00:16.905Z,0.00
2019-03-12T01:02:47.351Z,0.30
2019-03-12T01:05:17.781Z,0.10
2019-03-12T01:07:48.213Z,0.20
2019-03-12T01:10:18.739Z,0.20
2019-03-12T01:12:49.170Z,0.00
2019-03-12T01:15:19.597Z,-0.10
2019-03-12T01:18:01.259Z,-0.20
2019-03-12T01:20:31.697Z,-0.40
2019-03-12T01:23:02.189Z,-0.60
2019-03-12T01:25:32.605Z,-0.70
2019-03-12T01:28:03.166Z,-0.80
2019-03-12T01:30:33.606Z,-1.20
2019-03-12T01:33:04.015Z,-1.30
2019-03-12T01:35:34.442Z,-1.30
2019-03-12T01:38:04.977Z,-1.40
2019-03-12T01:40:35.418Z,-1.50
2019-03-12T01:43:05.966Z,-1.20
2019-03-12T01:45:36.432Z,-1.40
2019-03-12T01:48:06.833Z,-1.30
2019-03-12T01:50:37.242Z,-1.10
2019-03-12T01:53:07.773Z,-1.20
2019-03-12T01:55:38.331Z,-1.10
2019-03-12T01:58:08.867Z,-0.90
2019-03-12T02:00:39.529Z,-0.80
2019-03-12T02:03:10.055Z,-0.90
2019-03-12T02:05:40.666Z,-0.90
2019-03-12T02:08:11.086Z,-0.90
2019-03-12T02:10:41.519Z,-0.80
2019-03-12T02:13:12.003Z,-1.00
2019-03-12T02:15:42.430Z,-1.20
2019-03-12T02:18:12.849Z,-0.90
2019-03-12T02:20:43.299Z,-0.80
2019-03-12T02:23:13.711Z,-0.60
2019-03-12T02:25:44.235Z,-0.80
2019-03-12T02:28:14.691Z,-0.70
2019-03-12T02:30:45.111Z,-1.00
2019-03-12T02:33:15.649Z,-1.00
2019-03-12T02:35:46.096Z,-1.00
2019-03-12T02:38:16.499Z,-1.00
2019-03-12T02:40:46.919Z,-1.10
2019-03-12T02:43:17.326Z,-1.00
2019-03-12T02:45:47.850Z,-1.20
2019-03-12T02:48:18.218Z,-1.50
2019-03-12T02:50:48.660Z,-1.20
2019-03-12T02:53:19.077Z,-1.20
2019-03-12T02:55:49.493Z,-1.10
2019-03-12T02:58:19.902Z,-1.10
2019-03-12T03:00:50.367Z,-0.90
2019-03-12T03:03:20.791Z,-1.00
2019-03-12T03:06:07.212Z,-1.00
2019-03-12T03:08:37.627Z,-0.90
2019-03-12T03:11:08.075Z,-0.60
2019-03-12T03:13:38.603Z,-0.50
2019-03-12T03:16:09.323Z,-0.30
2019-03-12T03:18:39.735Z,-0.10
2019-03-12T03:21:10.148Z,-0.10
2019-03-12T03:23:40.599Z,-0.10
2019-03-12T03:26:11.106Z,-0.20
2019-03-12T03:28:41.511Z,-0.40
2019-03-12T03:31:12.918Z,-0.40
2019-03-12T03:33:43.390Z,-0.50
2019-03-12T03:36:13.883Z,-0.50
2019-03-12T03:38:44.309Z,-0.60
2019-03-12T03:41:14.735Z,-0.60
2019-03-12T03:43:45.263Z,-0.70
2019-03-12T03:46:15.743Z,-1.10
2019-03-12T03:48:46.103Z,-1.10
2019-03-12T03:51:16.504Z,-1.30
2019-03-12T03:53:46.983Z,-1.70
2019-03-12T03:56:17.458Z,-1.70
2019-03-12T03:58:47.908Z,-2.00
2019-03-12T04:01:18.428Z,-2.10
2019-03-12T04:03:48.857Z,-2.20
2019-03-12T04:06:19.275Z,-2.40
2019-03-12T04:08:49.816Z,-2.20
2019-03-12T04:11:20.247Z,-2.20
2019-03-12T04:13:50.698Z,-2.20
2019-03-12T04:16:21.101Z,-2.40
2019-03-12T04:18:51.518Z,-2.70
2019-03-12T04:21:21.926Z,-2.30
2019-03-12T04:23:52.331Z,-2.40
2019-03-12T04:26:22.779Z,-2.50
2019-03-12T04:28:53.199Z,-2.40
2019-03-12T04:31:23.713Z,-2.70
2019-03-12T04:34:22.763Z,-2.40
2019-03-12T04:36:53.550Z,-2.60
2019-03-12T04:39:23.951Z,-2.40
2019-03-12T04:41:54.353Z,-2.50
2019-03-12T04:44:24.733Z,-2.60
2019-03-12T04:46:55.133Z,-2.80
2019-03-12T04:49:25.662Z,-2.60
2019-03-12T04:51:56.066Z,-2.60
2019-03-12T04:54:26.507Z,-2.90
2019-03-12T04:56:56.941Z,-2.60
2019-03-12T04:59:27.416Z,-2.80
2019-03-12T05:01:57.934Z,-2.80
2019-03-12T05:04:28.393Z,-2.80
2019-03-12T05:06:58.949Z,-2.80
2019-03-12T05:09:29.314Z,-2.70
2019-03-12T05:11:59.735Z,-2.90
2019-03-12T05:14:34.414Z,-2.80
2019-03-12T05:17:12.609Z,-2.70
2019-03-12T05:19:46.738Z,-2.90
2019-03-12T05:22:18.790Z,-2.70
2019-03-12T05:24:49.304Z,-3.00
2019-03-12T05:27:19.671Z,-2.70
2019-03-12T05:29:50.125Z,-3.00
2019-03-12T05:32:20.533Z,-2.80
2019-03-12T05:34:50.997Z,-2.60
2019-03-12T05:37:21.652Z,-2.70
2019-03-12T05:39:52.390Z,-2.80
2019-03-12T05:42:22.802Z,-2.90
2019-03-12T05:44:53.381Z,-2.90
2019-03-12T05:47:23.778Z,-2.70
2019-03-12T05:49:54.230Z,-2.60
2019-03-12T05:52:24.680Z,-2.50
2019-03-12T05:54:55.087Z,-2.60
2019-03-12T05:57:25.544Z,-2.60
2019-03-12T05:59:55.946Z,-2.30
2019-03-12T06:02:26.400Z,-2.10
2019-03-12T06:04:56.817Z,-2.40
2019-03-12T06:07:27.225Z,-2.20
2019-03-12T06:09:57.653Z,-2.20
2019-03-12T06:12:28.138Z,-2.10
2019-03-12T06:14:58.562Z,-2.10
2019-03-12T06:17:28.977Z,-1.90
2019-03-12T06:19:59.394Z,-1.70
2019-03-12T06:22:29.813Z,-1.80
2019-03-12T06:25:00.390Z,-1.50
2019-03-12T06:27:30.820Z,-1.50
2019-03-12T06:30:01.254Z,-1.50
2019-03-12T06:32:59.780Z,-1.30
2019-03-12T06:35:40.549Z,-1.20
2019-03-12T06:38:22.711Z,-1.20
2019-03-12T06:41:15.198Z,-1.00
2019-03-12T06:44:12.508Z,-0.70
2019-03-12T06:47:01.786Z,-0.60
2019-03-12T06:49:47.198Z,-0.40
2019-03-12T06:52:54.775Z,-0.60
2019-03-12T06:55:34.641Z,-0.40
2019-03-12T06:58:31.509Z,-0.40
2019-03-12T07:01:26.575Z,-0.40
2019-03-12T07:04:03.364Z,-0.40
2019-03-12T07:06:51.186Z,-0.30
2019-03-12T07:09:31.756Z,-0.30
2019-03-12T07:12:13.525Z,-0.30
2019-03-12T07:15:02.826Z,-0.10
2019-03-12T07:17:56.645Z,-0.10
2019-03-12T07:20:45.929Z,0.30
2019-03-12T07:23:33.701Z,0.30
2019-03-12T07:26:19.867Z,0.30
2019-03-12T07:28:58.639Z,1.00
2019-03-12T07:32:00.178Z,1.00
2019-03-12T07:34:42.450Z,1.30
2019-03-12T07:37:27.330Z,1.60
2019-03-12T07:40:19.829Z,1.50
2019-03-12T07:43:22.556Z,1.70
2019-03-12T07:46:14.419Z,1.70
2019-03-12T07:48:55.058Z,1.90
2019-03-12T07:51:44.398Z,2.50
2019-03-12T07:54:33.633Z,2.60
2019-03-12T07:57:28.683Z,2.60
2019-03-12T08:00:14.124Z,2.20
2019-03-12T08:03:06.192Z,1.90
2019-03-12T08:05:43.154Z,2.20
2019-03-12T08:08:35.166Z,2.00
2019-03-12T08:11:13.042Z,2.50
2019-03-12T08:13:53.074Z,2.50
2019-03-12T08:16:51.642Z,2.50
2019-03-12T08:19:56.082Z,2.20
2019-03-12T08:22:45.321Z,2.00
2019-03-12T08:25:34.520Z,2.30
2019-03-12T08:28:29.818Z,2.40
2019-03-12T08:31:09.079Z,2.30
2019-03-12T08:33:57.167Z,2.10
2019-03-12T08:36:43.521Z,2.10
2019-03-12T08:39:38.843Z,2.10
2019-03-12T08:42:33.927Z,2.50
2019-03-12T08:45:39.325Z,2.20
2019-03-12T08:48:15.626Z,2.40
2019-03-12T08:50:55.639Z,2.20
2019-03-12T08:53:44.889Z,1.90
2019-03-12T08:56:40.418Z,2.20
2019-03-12T08:59:45.091Z,2.70
2019-03-12T09:02:52.614Z,2.80
2019-03-12T09:05:47.801Z,3.80
2019-03-12T09:08:40.236Z,4.00
2019-03-12T09:11:38.546Z,3.60
2019-03-12T09:14:27.774Z,3.40
2019-03-12T09:17:17.618Z,2.90
2019-03-12T09:20:08.403Z,2.90
2019-03-12T09:22:47.283Z,2.90
2019-03-12T09:25:51.735Z,3.40
2019-03-12T09:28:44.102Z,3.00
2019-03-12T09:31:39.185Z,3.60
2019-03-12T09:34:37.430Z,3.60
2019-03-12T09:37:29.855Z,3.50
2019-03-12T09:40:17.726Z,2.70
2019-03-12T09:43:16.318Z,2.30
2019-03-12T09:46:04.265Z,2.50
2019-03-12T09:49:08.638Z,3.10
2019-03-12T09:51:57.887Z,3.80
2019-03-12T09:54:48.854Z,4.00
2019-03-12T09:57:25.563Z,3.80
2019-03-12T10:00:32.938Z,3.90
2019-03-12T10:03:25.247Z,3.90
2019-03-12T10:06:04.162Z,3.80
2019-03-12T10:08:49.518Z,3.40
2019-03-12T10:11:50.939Z,3.40
2019-03-12T10:14:43.108Z,3.80
2019-03-12T10:17:25.791Z,3.70
2019-03-12T10:20:27.221Z,4.10
2019-03-12T10:23:16.478Z,4.10
2019-03-12T10:26:24.021Z,4.50
2019-03-12T10:29:12.449Z,4.90
2019-03-12T10:31:49.965Z,4.80
2019-03-12T10:34:30.361Z,4.90
2019-03-12T10:37:11.923Z,4.40
2019-03-12T10:40:12.518Z,4.20
2019-03-12T10:43:10.403Z,4.00
2019-03-12T10:45:59.690Z,3.90
2019-03-12T10:48:31.314Z,3.70
2019-03-12T10:51:01.852Z,3.80
2019-03-12T10:53:32.381Z,3.70
2019-03-12T10:56:02.801Z,4.00
2019-03-12T10:58:33.235Z,3.90
2019-03-12T11:01:03.726Z,4.00
2019-03-12T11:03:34.180Z,3.90
2019-03-12T11:06:04.645Z,4.50
2019-03-12T11:08:35.049Z,4.60
2019-03-12T11:11:05.990Z,4.50
2019-03-12T11:13:36.398Z,4.50
2019-03-12T11:16:07.066Z,4.40
2019-03-12T11:18:37.524Z,4.60
2019-03-12T11:21:07.935Z,4.30
2019-03-12T11:23:38.391Z,4.00
2019-03-12T11:26:08.853Z,3.30
2019-03-12T11:28:39.292Z,3.60
2019-03-12T11:31:09.960Z,3.90
2019-03-12T11:33:40.373Z,3.20
2019-03-12T11:36:10.906Z,3.40
2019-03-12T11:38:41.386Z,3.60
2019-03-12T11:41:11.777Z,3.80
2019-03-12T11:43:42.223Z,4.30
2019-03-12T11:46:12.631Z,4.50
2019-03-12T11:48:43.195Z,4.80
2019-03-12T11:51:13.633Z,4.60
2019-03-12T11:53:44.142Z,4.40
2019-03-12T11:56:14.701Z,4.10
2019-03-12T11:58:45.323Z,4.00
2019-03-12T12:01:15.743Z,3.80
2019-03-12T12:03:46.331Z,3.60
2019-03-12T12:06:16.871Z,3.50
2019-03-12T12:08:47.350Z,4.00
2019-03-12T12:11:17.822Z,4.40
2019-03-12T12:13:48.321Z,5.00
2019-03-12T12:16:18.825Z,5.50
2019-03-12T12:18:49.224Z,5.60
2019-03-12T12:21:19.740Z,5.60
2019-03-12T12:23:50.129Z,5.40
2019-03-12T12:26:20.581Z,5.20
2019-03-12T12:28:50.986Z,5.00
2019-03-12T12:31:21.473Z,5.00
2019-03-12T12:33:51.906Z,4.80
2019-03-12T12:36:22.351Z,4.80
2019-03-12T12:38:52.891Z,4.60
2019-03-12T12:41:23.327Z,4.60
2019-03-12T12:43:53.795Z,4.70
2019-03-12T12:46:24.257Z,5.10
2019-03-12T12:48:54.670Z,5.20
2019-03-12T12:51:25.424Z,4.90
2019-03-12T12:53:55.859Z,4.90
2019-03-12T12:56:26.263Z,5.10
2019-03-12T12:58:56.671Z,4.90
2019-03-12T13:01:27.154Z,4.70
2019-03-12T13:03:57.637Z,4.70
2019-03-12T13:06:28.161Z,4.50
2019-03-12T13:08:58.720Z,4.70
2019-03-12T13:11:29.222Z,4.50
2019-03-12T13:13:59.662Z,4.60
2019-03-12T13:16:30.125Z,4.10
2019-03-12T13:19:00.578Z,4.30
2019-03-12T13:21:31.019Z,4.20
2019-03-12T13:24:01.490Z,4.30
2019-03-12T13:26:31.963Z,4.20
2019-03-12T13:29:02.372Z,3.90
2019-03-12T13:31:32.818Z,4.10
2019-03-12T13:34:03.261Z,4.00
2019-03-12T13:36:33.672Z,4.30
2019-03-12T13:39:05.061Z,4.00
2019-03-12T13:41:35.466Z,4.30
2019-03-12T13:44:05.891Z,4.00
2019-03-12T13:46:36.425Z,4.20
2019-03-12T13:49:06.829Z,4.40
2019-03-12T13:51:37.258Z,4.20
2019-03-12T13:54:09.730Z,4.10
2019-03-12T13:56:39.922Z,4.00
2019-03-12T13:59:10.430Z,3.90
2019-03-12T14:01:40.900Z,4.40
2019-03-12T14:04:11.338Z,4.30
2019-03-12T14:06:41.827Z,4.70
2019-03-12T14:09:12.655Z,4.80
2019-03-12T14:11:43.211Z,5.30
2019-03-12T14:14:13.636Z,5.40
2019-03-12T14:16:44.107Z,5.40
2019-03-12T14:19:14.649Z,5.60
2019-03-12T14:21:45.623Z,5.60
2019-03-12T14:24:16.261Z,5.40
2019-03-12T14:26:46.662Z,4.90
2019-03-12T14:29:17.238Z,4.90
2019-03-12T14:31:47.825Z,5.00
2019-03-12T14:34:18.289Z,5.00
2019-03-12T14:36:48.821Z,5.10
2019-03-12T14:39:20.503Z,4.90
2019-03-12T14:41:50.990Z,4.70
2019-03-12T14:44:21.407Z,4.70
2019-03-12T14:46:51.826Z,4.70
2019-03-12T14:49:22.228Z,4.60
2019-03-12T14:52:30.154Z,4.50
2019-03-12T14:55:00.561Z,4.60
2019-03-12T14:57:31.012Z,4.10
2019-03-12T15:00:01.522Z,3.50
2019-03-12T15:02:32.046Z,3.50
2019-03-12T15:05:02.509Z,3.40
2019-03-12T15:07:33.062Z,3.70
2019-03-12T15:10:03.570Z,3.50
2019-03-12T15:12:33.994Z,3.50
2019-03-12T15:15:04.558Z,3.50
2019-03-12T15:17:35.021Z,3.50
2019-03-12T15:20:05.858Z,3.30
2019-03-12T15:22:36.270Z,3.20
2019-03-12T15:25:09.011Z,2.90
2019-03-12T15:27:39.501Z,2.60
2019-03-12T15:30:13.562Z,2.50
2019-03-12T15:32:43.986Z,2.50
2019-03-12T15:35:14.966Z,2.40
2019-03-12T15:37:45.521Z,2.50
2019-03-12T15:40:16.210Z,2.40
2019-03-12T15:42:46.790Z,2.20
2019-03-12T15:45:17.386Z,2.10
2019-03-12T15:47:47.906Z,1.70
2019-03-12T15:50:19.066Z,1.80
2019-03-12T15:52:49.706Z,1.80
2019-03-12T15:55:20.210Z,1.60
2019-03-12T15:57:50.648Z,1.50
2019-03-12T16:00:21.048Z,1.30
2019-03-12T16:02:51.458Z,1.20
2019-03-12T16:05:21.868Z,0.90
2019-03-12T16:07:52.290Z,1.00
2019-03-12T16:10:22.711Z,0.70
2019-03-12T16:12:53.260Z,0.60
2019-03-12T16:15:23.839Z,0.60
2019-03-12T16:17:54.298Z,0.30
2019-03-12T16:20:24.846Z,0.30
2019-03-12T16:22:55.298Z,0.30
2019-03-12T16:25:25.850Z,0.10
2019-03-12T16:27:56.402Z,-0.30
2019-03-12T16:30:26.865Z,-0.30
2019-03-12T16:32:57.321Z,-0.60
2019-03-12T16:35:27.871Z,-0.50
2019-03-12T16:37:58.370Z,-0.60
2019-03-12T16:40:28.920Z,-0.80
2019-03-12T16:42:59.517Z,-0.90
2019-03-12T16:45:30.086Z,-1.20
2019-03-12T16:48:00.526Z,-1.20
2019-03-12T16:50:30.992Z,-1.30
2019-03-12T16:53:01.404Z,-1.40
2019-03-12T16:55:31.910Z,-1.40
2019-03-12T16:58:02.297Z,-1.50
2019-03-12T17:00:33.310Z,-1.60
2019-03-12T17:03:03.859Z,-1.50
2019-03-12T17:05:34.330Z,-1.50
2019-03-12T17:08:04.783Z,-1.30
2019-03-12T17:10:35.262Z,-1.00
2019-03-12T17:13:05.818Z,-1.00
2019-03-12T17:15:36.354Z,-0.90
2019-03-12T17:18:07.111Z,-1.10
2019-03-12T17:20:38.018Z,-0.90
2019-03-12T17:23:08.706Z,-0.80
2019-03-12T17:25:39.276Z,-0.70
2019-03-12T17:28:09.997Z,-0.30
2019-03-12T17:30:40.780Z,-0.30
2019-03-12T17:33:11.230Z,-0.20
2019-03-12T17:35:41.766Z,-0.30
2019-03-12T17:38:12.325Z,-0.10
2019-03-12T17:40:42.851Z,-0.10
2019-03-12T17:43:13.447Z,-0.10
2019-03-12T17:45:43.922Z,0.10
2019-03-12T17:48:14.736Z,0.20
2019-03-12T17:50:45.130Z,0.20
2019-03-12T17:53:15.635Z,0.30
2019-03-12T17:55:46.239Z,0.30
2019-03-12T17:58:16.750Z,0.40
2019-03-12T18:00:47.310Z,0.30
2019-03-12T18:03:17.777Z,0.50
2019-03-12T18:05:48.393Z,0.40
2019-03-12T18:08:18.822Z,0.40
2019-03-12T18:10:49.269Z,0.50
2019-03-12T18:13:19.713Z,0.60
2019-03-12T18:15:50.282Z,0.50
2019-03-12T18:18:20.838Z,0.60
2019-03-12T18:20:51.349Z,0.60
2019-03-12T18:23:21.814Z,0.70
2019-03-12T18:25:52.294Z,0.60
2019-03-12T18:28:22.828Z,0.80
2019-03-12T18:30:53.293Z,0.70
2019-03-12T18:33:23.727Z,0.90
2019-03-12T18:35:54.230Z,1.10
2019-03-12T18:38:24.822Z,0.70
2019-03-12T18:40:55.547Z,0.80
2019-03-12T18:43:25.963Z,0.80
2019-03-12T18:45:56.649Z,1.00
2019-03-12T18:48:27.086Z,0.90
2019-03-12T18:50:57.533Z,1.10
2019-03-12T18:53:28.422Z,1.30
2019-03-12T18:56:04.298Z,1.10
2019-03-12T18:58:34.772Z,1.10
2019-03-12T19:01:15.462Z,1.20
2019-03-12T19:03:46.030Z,1.10
2019-03-12T19:06:16.470Z,1.30
2019-03-12T19:08:48.023Z,1.30
2019-03-12T19:11:19.057Z,1.30
2019-03-12T19:13:49.594Z,1.40
2019-03-12T19:16:20.035Z,1.20
2019-03-12T19:18:50.580Z,1.40
2019-03-12T19:21:21.053Z,1.60
2019-03-12T19:23:51.540Z,1.30
2019-03-12T19:26:22.082Z,1.40
2019-03-12T19:28:52.800Z,1.40
2019-03-12T19:31:45.121Z,1.30
2019-03-12T19:34:24.707Z,1.40
2019-03-12T19:36:55.226Z,1.30
2019-03-12T19:39:25.998Z,1.40
2019-03-12T19:41:56.538Z,1.40
2019-03-12T19:44:27.010Z,1.40
2019-03-12T19:46:57.575Z,1.60
2019-03-12T19:49:28.098Z,1.40
2019-03-12T19:51:58.664Z,1.50
2019-03-12T19:54:29.433Z,1.70
2019-03-12T19:57:00.026Z,1.20
2019-03-12T19:59:30.585Z,1.30
2019-03-12T20:02:15.201Z,1.50
2019-03-12T20:04:46.680Z,1.40
2019-03-12T20:07:07.295Z,1.50
2019-03-12T20:10:03.701Z,1.50
2019-03-12T20:13:02.733Z,1.30
2019-03-12T20:16:12.551Z,1.60
2019-03-12T20:19:19.174Z,1.40
2019-03-12T20:22:38.594Z,1.50
2019-03-12T20:25:57.714Z,1.60
2019-03-12T20:29:04.021Z,1.40
2019-03-12T20:32:10.154Z,1.40
2019-03-12T20:35:36.528Z,0.90
2019-03-12T20:38:43.615Z,1.00
2019-03-12T20:42:13.245Z,0.80
2019-03-12T20:45:23.123Z,0.80
2019-03-12T20:48:38.090Z,0.60
2019-03-12T20:51:43.981Z,0.40
2019-03-12T20:55:02.461Z,0.30
2019-03-12T20:58:09.474Z,0.30
2019-03-12T21:01:32.605Z,-0.10
2019-03-12T21:04:39.055Z,-0.20
2019-03-12T21:08:02.255Z,-0.50
2019-03-12T21:11:22.909Z,-0.50
2019-03-12T21:14:23.293Z,-0.60
2019-03-12T21:17:36.474Z,-0.80
2019-03-12T21:20:42.053Z,-1.10
2019-03-12T21:23:55.298Z,-1.20
2019-03-12T21:26:54.957Z,-1.30
2019-03-12T21:29:42.913Z,-1.30
2019-03-12T21:32:14.363Z,-1.40
2019-03-12T21:34:45.056Z,-1.70
2019-03-12T21:37:16.002Z,-1.60
2019-03-12T21:39:55.325Z,-1.60
2019-03-12T21:42:18.729Z,-1.70
2019-03-12T21:44:49.379Z,-1.80
2019-03-12T21:47:20.035Z,-1.90
2019-03-12T21:49:50.479Z,-1.60
2019-03-12T21:52:21.172Z,-1.50
2019-03-12T21:54:51.588Z,-1.60
2019-03-12T21:57:22.018Z,-1.70
2019-03-12T21:59:52.509Z,-1.70
2019-03-12T22:02:23.053Z,-1.70
2019-03-12T22:04:53.470Z,-1.90
2019-03-12T22:07:24.141Z,-1.90
2019-03-12T22:09:54.818Z,-1.80
2019-03-12T22:12:25.265Z,-2.00
2019-03-12T22:14:55.756Z,-2.10
2019-03-12T22:17:26.648Z,-1.80
2019-03-12T22:19:57.058Z,-1.80
2019-03-12T22:22:55.651Z,-2.00
2019-03-12T22:25:26.073Z,-1.90
2019-03-12T22:27:56.674Z,-1.90
2019-03-12T22:30:29.114Z,-1.90
2019-03-12T22:32:59.559Z,-1.80
2019-03-12T22:35:29.986Z,-2.10
2019-03-12T22:38:00.488Z,-1.80
2019-03-12T22:40:30.891Z,-2.00
2019-03-12T22:43:01.350Z,-1.80
2019-03-12T22:45:31.786Z,-2.10
2019-03-12T22:48:02.394Z,-2.00
2019-03-12T22:50:32.866Z,-1.90
2019-03-12T22:53:03.318Z,-2.10
2019-03-12T22:55:33.753Z,-2.00
2019-03-12T22:58:04.189Z,-2.00
2019-03-12T23:00:43.210Z,-1.90
2019-03-12T23:03:13.672Z,-1.90
2019-03-12T23:05:44.291Z,-2.20
2019-03-12T23:08:14.718Z,-2.10
2019-03-12T23:10:45.262Z,-1.90
2019-03-12T23:13:15.966Z,-2.00
2019-03-12T23:15:46.422Z,-1.90
2019-03-12T23:18:16.942Z,-1.90
2019-03-12T23:20:47.434Z,-1.90
2019-03-12T23:23:17.772Z,-2.00
2019-03-12T23:25:48.215Z,-2.00
2019-03-12T23:28:18.546Z,-1.80
2019-03-12T23:30:48.922Z,-1.70
2019-03-12T23:33:19.286Z,-1.60
2019-03-12T23:35:49.666Z,-1.60
2019-03-12T23:38:20.045Z,-1.50
2019-03-12T23:40:50.454Z,-1.40
2019-03-12T23:43:20.815Z,-1.50
2019-03-12T23:45:51.163Z,-1.80
2019-03-12T23:48:22.242Z,-1.50
2019-03-12T23:50:53.078Z,-1.50
2019-03-12T23:53:23.805Z,-1.50
2019-03-12T23:55:54.423Z,-1.50
2019-03-12T23:58:30.378Z,-1.90
